JOUVE OUVE 2018 le 25/11/2018

Recherche par Dossard : par Nom : par Club :

Place Dossard Nom Prenom Cat. Pl. Cat. Temps Club Sexe
1 2745 LOUIS-MONDESIR LOIC SE 1 00:14:09 MAIRIE SPORTIVE M
2 2555 ROSALIE LUCAS SE 2 00:14:36 GOOD LUCK ATHLETISME M
3 2379 JOSEPH ZEPHERINUS V1 1 00:14:40 GOLDEN STAR M
4 2434 JEAN ELIE GEORGES JU 1 00:14:41 MAIRIE SPORTIVE M
5 2763 CHARTON JULIEN SE 3 00:14:51 CLUB PELEEN M
6 2348 BRIERE CLEMENT SE 4 00:15:03 GOLDEN STAR M
7 2885 JOSEPH 0 V1 2 00:15:08 ATHLETIC CLUB SALEEN M
8 2346 JASON SAYERS V1 3 00:15:33 GOLDEN STAR M
9 2875 MOESTA YONA JU 2 00:15:55 ASCOIA M
10 2117 AUGUSTIN-LUCILE FABRICE V1 4 00:15:56 ASCO INTER ATLAS M
11 2388 JEANNOT JEAN-ETIENNE V2 1 00:16:01 GOLDEN STAR M
12 2341 HO-CAN-SUNG OLIVIER V1 5 00:16:04 GOLDEN STAR M
13 2433 LINEL LAURENT SE 5 00:16:11 MAIRIE SPORTIVE M
14 2319 BOLOTTE FRANÇOIS SE 6 00:16:14 M
15 2766 MARINE CHRISTOPHE JU 3 00:16:19 CLUB PELEEN M
16 2516 LOUIS-MONDESIR YANJIE JU 4 00:16:20 M
17 2710 ZACHARIE CHARLES-DENIS V2 2 00:16:25 CLUB COLONIAL M
18 2337 BLACODON THIERRY V1 6 00:16:33 POLICE SPORTIVE M
19 2410 CORDEMY MATHIEU V1 7 00:16:41 M
20 2113 MEYNARD HENDRICK SE 7 00:16:41 LES GRENOUILLES BLEUES M
21 2937 JONCART JUDE V1 8 00:16:55 ATHLETIC CLUB SALEEN M
22 2967 FONSAT BRAYHAN SE 8 00:16:57 US ROBERT M
23 2114 FONDS FABRICE V1 9 00:16:57 LES GRENOUILLES BLEUES M
24 2156 MARCENY MERICK ES 1 00:16:57 M
25 2847 NESTORET BRUNO V1 10 00:17:04 CLUB PELEEN M
26 2153 DEMAZON ERIC V1 11 00:17:22 M
27 2424 GIRAUD NOAH MI 1 00:17:22 VAUCLIN ATHLETIC CLUB M
28 2768 BORDIN TEDDY V1 12 00:17:28 CLUB PELEEN M
29 2181 POMONEL THOMAS CA 1 00:17:37 M
30 2767 NERMORIN THIRRY V2 3 00:17:43 CLUB PELEEN M
31 2336 ARTHERON LUDWIG SE 9 00:17:52 POLICE SPORTIVE M
32 2354 RAGOT OLIVIER SE 10 00:17:53 POLICE SPORTIVE M
33 2886 DELLEVI ANTHONY-LIVIO JU 5 00:17:54 ATHLETIC CLUB SALEEN M
34 2443 BRUNO LUDOVIC JU 6 00:17:54 M
35 2152 GODY ROBERT V2 4 00:17:58 M
36 2640 MARGUERITE MARVIN JU 7 00:18:00 VAUCLIN ATHLETIC CLUB M
37 2327 MASSOLIN FABIENNE V1 1 00:18:01 GOLDEN STAR F
38 2384 GISCON ANDY CA 2 00:18:04 GOLDEN STAR M
39 2477 TABAR RAYMOND V2 5 00:18:11 WINNER TEAM M
40 2484 MONLOUIS BONNAIRE ADELINE SE 1 00:18:14 F
41 2034 WILLIAM FRANCK CYRILLE V2 6 00:18:20 M
42 2873 PRECART CAMILLE JU 1 00:18:23 ASCOIA F
43 2776 ELISEE JEAN-MARC V2 7 00:18:30 GOLDEN STAR M
44 2568 FLOBINUS HENRIUS RODOLPHE V2 8 00:18:38 M
45 2499 RENEL GILBERT V3 1 00:18:43 M
46 2121 LEGLISE TIMEO CA 3 00:18:43 M
47 2024 SHAW BRIONY SE 2 00:18:53 F
48 2350 BERARD TONY V2 9 00:18:53 POLICE SPORTIVE M
49 2442 CHENY GEORGES-HENRI CA 4 00:19:09 M
50 2874 BOISSON GABRIELLE CA 1 00:19:11 ASCOIA F
51 2524 LAMOTTE KIERAN JU 8 00:19:22 TIGER TEAM 972 M
52 2347 COUDRAY ALEXANDRINE SE 3 00:19:23 GOLDEN STAR F
53 2363 BECHET EDOUARD V2 10 00:19:25 M
54 2206 CHAPIN DESIRE V3 2 00:19:27 AIGLON DU LAMENTIN M
55 2365 LASSOURCE JONATHAN SE 11 00:19:31 M
56 2771 FONTAINE LIONEL JU 9 00:19:35 M
57 2792 MASSEE DANIEL V1 13 00:19:39 M
58 2736 ALBENY JEAN CLAUDE V2 11 00:19:43 SILVER STAR M
59 2280 MAUNIER PATRICE V1 14 00:19:50 M
60 2587 BARIL LUC V2 12 00:19:54 CG OEUVRES SOCIALES HOSPITALIERES M
61 2765 NERET JOEL V2 13 00:19:56 CLUB PELEEN M
62 2468 CANOVA ALEX V1 15 00:19:58 M
63 2648 DEROND CHARLES V1 16 00:20:04 CLUB PELEEN M
64 2532 COCO GERALD SE 12 00:20:13 TIGER TEAM 972 M
65 2664 FLERET MUGUEL V1 17 00:20:13 M
66 2026 MARSALLON EDDY V2 14 00:20:15 M
67 2589 MARCE MARC MICHEL V1 18 00:20:16 M
68 2667 DESCAMPS JULIEN SE 13 00:20:19 M
69 2059 CHARLES-NICOLAS GILLES V1 19 00:20:22 M
70 2242 CAUPENNE HERVEY CA 5 00:20:24 LES BAROUDEURS MARTINIQUE M
71 2482 CLOTAIL JEAN-LUC V2 15 00:20:24 US ROBERT M
72 2160 SALINIERE JEAN ROGER V1 20 00:20:25 M
73 2594 SAINTE-MARIE AMÉDÉ V2 16 00:20:29 M
74 2157 CAROUJEL CLAUDE V2 17 00:20:32 M
75 2416 CRATER ANGELE SE 4 00:20:34 F
76 2979 RAGOT GERALDINE V1 2 00:20:35 GOLDEN STAR F
77 2519 ROCHE THIBAULT SE 14 00:20:47 GOLDEN STAR M
78 2252 DUILLET MICHEL V2 18 00:20:49 M
79 2676 DELLY CORINNE V1 3 00:20:51 ATHLETIC CLUB SALEEN F
80 2731 GREGOIRE EVAN JU 10 00:20:53 M
81 2590 FRANCOIS-HAUGRAIN CHRISTOPHE V2 19 00:20:53 M
82 2312 VELMONT JULIEN V3 3 00:20:54 ASPTT MARTINIQUE M
83 739 NIVORE CHRISTIAN V2 20 00:20:57 M
84 2138 VIVIES MARTIN CA 6 00:20:57 M
85 2713 RÉSIDANT LÉONCE V3 4 00:20:58 M
86 2333 ARMČDE CHRISTOPHE SE 15 00:20:58 M
87 2141 MAVINGA MARC V1 21 00:21:01 MADININA ATHLETISME M
88 2151 VERONIQUE STEPHANE SE 16 00:21:11 M
89 2621 ANACLET JEAN-ALEXANDRE ES 2 00:21:15 US ROBERT M
90 2638 KADI ANDRE V3 5 00:21:22 G.A.B.S M
91 2195 HEJOAKA FRANCOISE V2 1 00:21:27 F
92 2089 DE LUCY DE FOSSARIEU LOUIS CA 7 00:21:36 M
93 2036 LACAVALERIE CEDRIC SE 17 00:21:40 ASSAUT SAINT PIERRE M
94 2233 GEORGES GILLES SE 18 00:21:47 M
95 2912 BARONNET DAMIEN SE 19 00:21:48 SOMES M
96 2943 MERCAN Guy V3 6 00:21:53 M
97 2581 ERIN JEAN-MARC V2 21 00:21:56 CG OEUVRES SOCIALES HOSPITALIERES M
98 2699 JONCART CLAUDE V1 22 00:21:57 ATHLETIC CLUB SALEEN M
99 2609 PIERRE-LOUIS PATRICK V2 22 00:21:59 CLUB MANIKOU ORGANISATIONS M
100 2093 PAQUET JACQUES SE 20 00:22:01 M
101 2099 LONY ALPHONSE SE 21 00:22:02 M
102 2444 JURIN DELHIA JU 2 00:22:03 LE REVEIL DE LA COTE CARAIBE F
103 2931 PERMENGANT Jean Louis V3 7 00:22:03 M
104 2832 THALY RODRIGUE V1 23 00:22:03 M
105 2470 BAZABAS JEAN-HUGUES V2 23 00:22:06 M
106 2013 IVALDI RONALD V1 24 00:22:07 M
107 2096 HOCHE AIMERIC JU 11 00:22:07 M
108 2330 ELISABETH KAREN SE 5 00:22:11 GOLDEN STAR F
109 2563 EGESIPE JULES V3 8 00:22:14 M
110 2540 PIERRE LOUIS JOHANNA V1 4 00:22:15 TEAM MADINFORM F
111 2611 BILLY THIBAULT V1 25 00:22:20 KAWANN TRIATHLON CLUG M
112 2926 FORDANT Daniel V3 9 00:22:20 M
113 2620 ROUBLIQUE JULES CA 8 00:22:20 BARRADEUR M
114 2074 PRUVOST EWAN MI 2 00:22:25 M
115 2514 BEAUDREUIL JEAN MICHEL SE 22 00:22:26 M
116 2175 LIN LAURENT-CHARLES SE 23 00:22:28 M
117 2208 JARRIN VICTORIEN V4 1 00:22:35 OMASS M
118 2773 JEAN-FRANCOIS TEDDY SE 24 00:22:36 M
119 2396 MASOT SOLY SE 6 00:22:36 F
120 2939 BELLEAU LAURENT V2 24 00:22:36 M
121 2774 MARIE-SAINTE PATRICK V2 25 00:22:37 M
122 2144 KOURY IRINA SE 7 00:22:37 AIGLON DU LAMENTIN F
123 2015 CERLAND NATHALIE SE 8 00:22:42 F
124 2721 JEAN-JOSEPH ZOYA CA 2 00:22:43 F
125 2623 MERIT FREDERIC V1 26 00:22:54 TEAM MADINFORM M
126 605 ALLEBE FREDERIC V1 27 00:22:54 M
127 699 ROVELA RONALD SE 25 00:22:55 M
128 2522 PLATON FRED V1 28 00:23:03 VAUCLIN ATHLETIC CLUB M
129 2288 MELINARD HAROLD SE 26 00:23:03 M
130 2624 FAUVEAU BRIGITTE V2 2 00:23:06 TEAM MADINFORM F
131 2436 FLORIAN JULES V3 10 00:23:10 MAIRIE SPORTIVE M
132 2146 GERVAIS LAURENT V1 29 00:23:14 M
133 2839 VATENARD GUYBERT V2 26 00:23:15 M
134 2512 LAPILUS EDITH V2 3 00:23:18 F
135 2707 TAUFOND MOISE V1 30 00:23:19 M
136 2586 LABINSKY MATHURIN V2 27 00:23:22 M
137 2490 SAINTE-ROSE-ROSEMOND BASTIEN CA 9 00:23:23 M
138 2420 GOUACIDE NICOLE V1 5 00:23:28 F
139 2241 CAUPENNE THIERRY V1 31 00:23:30 M
140 2980 TRAVAIN EMMANUELLE V1 6 00:23:31 F
141 2538 MACED SYLVIANE V2 4 00:23:31 TEAM MADINFORM F
142 2205 HENRY JOHN SE 27 00:23:32 M
143 2777 REZAIRE GWENDAL ES 3 00:23:32 US ROBERT M
144 2668 TAVUS NORICK ES 4 00:23:32 M
145 2560 DUHAMEL CATHERINE V1 7 00:23:33 F
146 2982 CAYOL CELINE V2 5 00:23:34 LA RENOVATION DE AUGRAIN F
147 2403 NELZY OLIVIER V2 28 00:23:36 M
148 2414 CAPGRAS ANASTASIE V4 2 00:23:37 M
149 2535 GABRIEL MICHEL V1 32 00:23:38 M
150 2723 VILLERONCE JIMMY V1 33 00:23:42 M
151 2679 PALCY-PAVADE NATHALIE V1 8 00:23:42 F
152 2243 CAUPENNE CYRIL CA 10 00:23:43 LES BAROUDEURS MARTINIQUE M
153 2459 DELOGE VINCENT SE 28 00:23:43 M
154 2129 FLEURILIEN MARIE WADLY V1 9 00:23:46 F
155 2370 CYPRIA EDMOND V3 11 00:23:46 POLICE SPORTIVE M
156 702 SOLBIAC JEAN V3 12 00:23:52 M
157 2527 LINERE MARIE-YVONNE V1 10 00:23:53 TIGER TEAM 972 F
158 2279 MARTOT FABRINA V1 11 00:23:54 F
159 2925 FREDERIC Rita CA 3 00:23:58 F
160 2697 MARGUERITE CAMILLE V2 29 00:23:58 M
161 2018 FONTAINE FRANTZ V2 30 00:23:59 M
162 2196 RANCÉ MICK V2 31 00:24:02 M
163 2657 AYME AURELIE SE 9 00:24:05 F
164 2128 BERTHOD LAURENT V1 34 00:24:06 M
165 2478 HOUDREVILLE GUY V4 3 00:24:07 M
166 2949 ELISABETH MICHEL V1 35 00:24:08 M
167 2833 HON DILDRID SE 29 00:24:09 M
168 2491 HAUTERVILLE ULRICK SE 30 00:24:09 M
169 2572 THURAM-ULLIEN MARIE-CHRISTINE V2 6 00:24:11 CG OEUVRES SOCIALES HOSPITALIERES F
170 2845 LEOPOLDIE SAINVILLE V3 13 00:24:11 M
171 2904 ROQUELAURE JEAN CLAUDE V2 32 00:24:13 ASSO TIPI M
172 2901 GOVINDOORAZOO CHANTAL V2 7 00:24:14 ASSO TIPI F
173 2717 RINTO CYNTHIA JU 3 00:24:16 TIGER TEAM 972 F
174 2718 MILARD MANUELLA ES 1 00:24:18 TIGER TEAM 972 F
175 2772 PIERRE MITH PIERRE V2 33 00:24:21 M
176 2235 BONTRAIN YVA V2 8 00:24:22 F
177 2471 MORBERY DANIEL V3 14 00:24:25 RACING CLUB MARTINIQUE M
178 2359 LESMOND JOCELYN V2 34 00:24:26 AIGLON DU LAMENTIN M
179 2872 MERINE SYLVIE V1 12 00:24:27 ASCOIA F
180 2372 GROS-DESORMEAUX SANDRINE V1 13 00:24:28 VAUCLIN ATHLETIC CLUB F
181 2922 DAVIDAS TONY V1 36 00:24:29 M
182 2064 PALCY VERONIQUE SE 10 00:24:30 F
183 2073 TYBURN MIGUEL V2 35 00:24:30 M
184 2923 FERRATY Felix V2 36 00:24:38 M
185 2610 BILLY MELANIE SE 11 00:24:38 CSLG DE LA MARTINIQUE F
186 2368 JEAN-GILLES THIERRY V2 37 00:24:43 CA TEAM M
187 2467 SMITE PATRICK V1 37 00:24:43 M
188 2389 GRATALOUP GAELLE SE 12 00:24:47 GOLDEN STAR F
189 2302 ALLOUIS JULIE SE 13 00:24:49 AIGLON DU LAMENTIN F
190 2846 CHALLAN BELVAL NELLY SE 14 00:24:49 F
191 2952 TIDAS MARIE THERESE SE 15 00:24:51 F
192 2367 LASSOURCE CLAIRE SE 16 00:24:52 F
193 2541 ADEE TANIA V1 14 00:24:52 TEAM MADINFORM F
194 2848 PERRIN CHANTAL V1 15 00:24:54 F
195 2474 TROUDART YVES V3 15 00:24:54 M
196 2711 JEAN-PIERRE FRED V2 38 00:24:54 CLUB COLONIAL M
197 2678 THOMASI CARINE V1 16 00:24:56 F
198 2189 PRIVAT MICHEL V3 16 00:24:57 M
199 2730 GREGOIRE CHRISTINE V1 17 00:24:57 F
200 2655 BALUSTRE HUBERT V3 17 00:25:06 M
201 2240 BRULU CHANTAL V2 9 00:25:07 F
202 2559 SIMBA WILL V2 39 00:25:10 US ROBERT M
203 2062 ADRÉA JEAN-PIERRE V2 40 00:25:13 M
204 2343 LEDUFF MYRIAM V1 18 00:25:15 GOLDEN STAR F
205 2058 LAURIER SUZETTE V3 1 00:25:15 AMCF F
206 2972 MILOCK VICTOR V2 41 00:25:16 M
207 2149 HOULLIER DANNY V1 38 00:25:16 M
208 2317 FELICIE FLAVIEN V3 18 00:25:17 M
209 2543 PIERRE LOUIS YVA SE 17 00:25:18 TEAM MADINFORM F
210 2397 BRELEUR JOSETTE V2 10 00:25:19 F
211 2285 WILLIAM SYLVIANE V2 11 00:25:20 F
212 2439 MONTEL DANIEL V2 42 00:25:21 MAIRIE SPORTIVE M
213 2693 ANGAMA DAVY JU 12 00:25:21 M
214 2592 BONIFACE RÉMY SE 31 00:25:24 M
215 2060 ETIENNE ERIC V1 39 00:25:25 M
216 2715 MALLE SABRINA V1 19 00:25:26 F
217 2413 GERMANY FABRICE SE 32 00:25:28 M
218 2626 QUEDRUC SANDRA SE 18 00:25:31 TEAM MADINFORM F
219 2311 RUBAN JEAN V3 19 00:25:32 ASPTT MARTINIQUE M
220 2281 PRIVAT SARAH SE 19 00:25:33 F
221 2207 GRMANY CHRISTELLE SE 20 00:25:34 F
222 2419 CROTET MATHIEU SE 33 00:25:35 M
223 2386 CLAUDE CHARLES V2 43 00:25:35 GOLDEN STAR M
224 2978 LALLEMENT BEATRICE V2 12 00:25:37 F
225 2437 MARIE JOSEPH ALBERT V2 44 00:25:38 MAIRIE SPORTIVE M
226 2321 OTHONY OLIVIER V1 40 00:25:38 M
227 2287 SAINTE-ROSE-ROSEMOND LINDA SE 21 00:25:40 F
228 2221 FILET FRANTZ V1 41 00:25:41 OMASS M
229 2231 VANITOU PATRICK V2 45 00:25:43 M
230 2194 MARCHO PAUL V3 20 00:25:45 M
231 2446 MARIE-MAGDELEINE LÉLIA SE 22 00:25:46 HERBALIFE NUTRITION MARTINIQUE F
232 2584 BEAUDREUIL NADINE SE 23 00:25:46 CG OEUVRES SOCIALES HOSPITALIERES F
233 2052 MILIA EUGÉNIA V1 20 00:25:46 F
234 2656 JEANNE-ROSE VALERIE V1 21 00:25:46 F
235 2940 AGLAE MAX V2 46 00:25:47 M
236 2282 ANGELIE BEATRICE V1 22 00:25:47 F
237 2133 MARION CAROLINE SE 24 00:25:48 F
238 2430 MARLIACY DANIELLE V1 23 00:25:48 MAIRIE SPORTIVE F
239 2139 SCHWARZ TIM SE 34 00:25:49 M
240 2981 ?Dossard #2981 SE 35 00:25:49 M
241 2554 ATHANASE CHANTAL MARIE LINE V2 13 00:25:51 F
242 2301 CHARLES-HELENE CLARISSE V1 24 00:25:52 AIGLON DU LAMENTIN F
243 2897 FILET DENISE V1 25 00:25:53 ASSAUT SAINT PIERRE F
244 2698 CATAYEE MARIE-NOELLE V2 14 00:25:56 TCHIMBE RAID F
245 2122 TOUSSAY FRANCOIS V2 47 00:25:57 M
246 2458 RIVIERE SARAH SE 25 00:25:58 F
247 2910 MARIE SAINTE ROSEMONDE V2 15 00:26:00 SOMES F
248 2362 SAUVEUR CATHERINE V2 16 00:26:01 F
249 2120 LEGLISE FLORIANE V1 26 00:26:03 F
250 2759 CAGE CASIMIR V3 21 00:26:04 M
251 2447 GLISSANT PATRICIA SE 26 00:26:07 AIGLON DU LAMENTIN F
252 2475 D ABADIE DE LUBRE CATHERINE V1 27 00:26:08 SAM HORIZON 2000 F
253 2526 TRESFIELD VALERIE SE 27 00:26:09 TIGER TEAM 972 F
254 2689 MONTLOUIS FÉLICITÉ JULES RIGOBERT V2 48 00:26:10 HERBALIFE NUTRITION MARTINIQUE M
255 2536 THIMON ELZA V2 17 00:26:11 TEAM MADINFORM F
256 2377 BERNARD ISABELLE V1 28 00:26:12 F
257 2636 JAREL LAURENCE V1 29 00:26:13 TEAM MADINFORM F
258 2569 BOSSARD GAELLE V2 18 00:26:15 CG OEUVRES SOCIALES HOSPITALIERES F
259 2578 LASSOURD JEAN - CLAUDE V4 4 00:26:15 CG OEUVRES SOCIALES HOSPITALIERES M
260 2123 BURNER JEAN-PIERRE V3 22 00:26:17 M
261 2579 HARDOROCK IRENE V3 23 00:26:19 CG OEUVRES SOCIALES HOSPITALIERES M
262 2326 PAIN COLETTE V3 2 00:26:19 GOLDEN STAR F
263 2461 LUBIN JULIA SE 28 00:26:27 AIGLON DU LAMENTIN F
264 2159 KOUASSIGAN NATHALIE V1 30 00:26:27 F
265 2803 OSENAT LIONEL SE 36 00:26:28 MAS M
266 2820 LAROCHELLE BÉATRICE V1 31 00:26:28 MAS F
267 2451 VITEL MARION SE 29 00:26:36 F
268 2625 JOUBERT MURIEL V1 32 00:26:36 TEAM MADINFORM F
269 2158 GORAM SUZY V1 33 00:26:38 F
270 2813 DE THORE STÉPHEN V1 42 00:26:39 MAS M
271 2899 BROUET YANNIS SE 37 00:26:40 M
272 2575 PIGEON JOCELYNE V2 19 00:26:42 CG OEUVRES SOCIALES HOSPITALIERES F
273 2248 ANGEVIN ANNICK V2 20 00:26:43 CLUB MANIKOU ORGANISATIONS F
274 2010 MORLAN MARIE JOSE V2 21 00:26:47 F
275 2485 BANCONS ANAIS SE 30 00:26:48 F
276 2571 GELLYNCK ALINE SE 31 00:26:50 CG OEUVRES SOCIALES HOSPITALIERES F
277 2963 DERAMPE Arnaud SE 38 00:26:51 M
278 2746 BORIEL NICOLE V1 34 00:26:53 AIGLON DU LAMENTIN F
279 2881 MANDALA IDA SE 32 00:26:56 F
280 2932 DELINDE Miguel V2 49 00:26:58 M
281 2316 VIELET GAELLE SE 33 00:27:01 F
282 2291 BOYE-DON MIRKO V1 43 00:27:02 M
283 2290 PONTHONNIER JULIANA SE 34 00:27:02 F
284 2325 DULYS SONIA V2 22 00:27:03 GOLDEN STAR F
285 2334 ADUBAL SYLVIE V1 35 00:27:06 POLICE SPORTIVE F
286 2920 CHABRELE DOMINIQUE V1 44 00:27:07 AGT MAIRIE FDF M
287 2896 ALEXANDRE PABLO SE 39 00:27:07 M
288 2426 ALFRED NICOLE V1 36 00:27:09 MAIRIE SPORTIVE F
289 2660 EDGARD KÉVIN JU 13 00:27:10 M
290 2187 RAMANICH LUCE V2 23 00:27:11 F
291 2008 MARKOS MIGUEL V1 45 00:27:12 M
292 2310 AMBROISINE BENJAMIN V5 1 00:27:13 M
293 2631 LERIGHAB JEAN PAUL V2 50 00:27:14 TEAM MADINFORM M
294 2867 CRIQUET BRUNO V2 51 00:27:14 M
295 2422 VILO KENAN JU 14 00:27:14 RACING CLUB MARTINIQUE M
296 2492 MACARIE MIGUEL V3 24 00:27:15 M
297 2185 HUYGHUES DES ETAGES PHILIPPE V1 46 00:27:15 M
298 2171 DUZON RODOLPHE V2 52 00:27:17 M
299 2743 ELIZABETH- MARIE- FRANCOISE JOEL V2 53 00:27:17 M
300 2289 SAINT-PIERRE GENEVIEVE V2 24 00:27:18 F
301 2903 NERE ENA V2 25 00:27:19 ASSO TIPI F
302 2829 DE BAULIEU MELANIE JU 4 00:27:20 F
303 2652 MONNERVILLE MAX V3 25 00:27:20 M
304 286 HENRIQUES DIAS MANUEL V2 54 00:27:20 M
305 2340 MARGUERITE SANDRA V1 37 00:27:23 GOLDEN STAR F
306 2666 CHOUX LYDIE V1 38 00:27:23 F
307 2870 FRANCOIS-EUGENE WILLIAM PAUL V3 26 00:27:24 POLICE SPORTIVE M
308 2871 FRANCOIS-EUGENE FRANCETTE MARIE V2 26 00:27:25 POLICE SPORTIVE F
309 2080 BOUTON IVELLE SE 35 00:27:28 F
310 2523 D ABADIE DE LURBE DENIS V1 47 00:27:28 M
311 2328 ZALI ESTELLE SE 36 00:27:28 GOLDEN STAR F
312 2025 NOEMI SANDRINE V1 39 00:27:33 F
313 2409 CABRERA MAITE SE 37 00:27:33 F
314 2245 PRUDENT FRÉDÉRIQUE V2 27 00:27:37 F
315 2247 MBOLIDI-BARON HÉLČNE V2 28 00:27:37 F
316 2322 CHARET ERIC V2 55 00:27:38 M
317 2557 NDJAYE CELIANE SE 38 00:27:38 F
318 2364 KOWALSKI SANDRINE V2 29 00:27:40 F
319 2747 MONZITA RAYMOND V3 27 00:27:44 M
320 2692 ANGAMA MICHELINE V1 40 00:27:49 F
321 2577 LARCHER JOSÉ V3 28 00:27:49 CG OEUVRES SOCIALES HOSPITALIERES M
322 2292 ELMIRA Bruno V1 48 00:27:49 - M
323 2222 CLIO Lydie V1 41 00:27:50 - F
324 2401 GLONDU MIGUEL V2 56 00:27:50 M
325 2733 CAPGRAS ERIC V2 57 00:27:50 M
326 2583 GRUTUS LYNDA SE 39 00:27:52 CG OEUVRES SOCIALES HOSPITALIERES F
327 2344 MASSEE RACHEL V1 42 00:27:53 GOLDEN STAR F
328 2101 MARIE-LUCE NADINE V2 30 00:27:54 F
329 2712 THOMASSIN YANNIS V1 49 00:27:55 CLUB COLONIAL M
330 2140 AGLAE PHILIPPE V1 50 00:27:57 M
331 2653 ZOU RENÉE-LAURE V2 31 00:28:00 F
332 2320 LARGEN PATRICIA V1 43 00:28:01 F
333 2349 MA DANIELLE V2 32 00:28:05 GOLDEN STAR F
334 2935 GIRIER-DUFOURNIER Yuri ES 5 00:28:07 M
335 2154 VADO EDDY SE 40 00:28:07 M
336 2023 FANEL GEORGES V3 29 00:28:09 M
337 2314 POURTOUT PATRICK V1 51 00:28:10 ASPTT MARTINIQUE M
338 2456 JOS DOMINIQUE V3 30 00:28:10 M
339 2405 JULINA FRANTZ V3 31 00:28:13 M
340 2486 RAMEAU NADIČGE V2 33 00:28:14 F
341 2895 ALEXANDRE MARIE-ALICE V2 34 00:28:20 F
342 2734 ZAIRE PIERRE V3 32 00:28:20 M
343 2844 DRU ROBERT V3 33 00:28:22 M
344 2213 LEJUSTE JOSIANE V3 3 00:28:23 OMASS F
345 2353 BEURDELEY MARLČNE SE 40 00:28:25 CSLG DE LA MARTINIQUE F
346 2517 JEANNE-ROSE CATHERINE V2 35 00:28:26 F
347 2415 YOUNES DANIELLE V1 44 00:28:26 F
348 2304 LOUIS-ALEXANDRE CAROLINE SE 41 00:28:27 F
349 2842 HILDERAL REGINE V1 45 00:28:28 F
350 2742 BELIN LOUIS GOERGES V4 5 00:28:30 M
351 2038 SAUNOIS CLAIRE V2 36 00:28:31 F
352 2197 ELOI-HILAIRE VANESSA SE 42 00:28:33 F
353 2911 LODEON MARGAUX SE 43 00:28:35 SOMES F
354 2749 PIVERT BETTY V1 46 00:28:36 F
355 2170 MOSCOU LUCIENNE V1 47 00:28:38 F
356 2542 REGIS CYNTHIA SE 44 00:28:41 TEAM MADINFORM F
357 2001 COURSIL GLWADYS SE 45 00:28:45 F
358 2086 MANDOUKI FÉLIX ERNEST V3 34 00:28:46 M
359 2173 MOUSTIN HENRI V5 2 00:28:50 AMCF M
360 2515 BOMPAS CLAUDE V4 6 00:28:51 M
361 2649 BERNADINE MIRELLA V1 48 00:28:52 F
362 2047 MARTOT MARILYNE V2 37 00:28:53 US ROBERT F
363 2556 JOSMAR KARINE V1 49 00:28:54 F
364 2087 SONDER MÉLANIE V1 50 00:28:56 F
365 2407 DEMONIERE MARIE-AMELIE SE 46 00:28:56 F
366 2088 SONDER FREDERIC SE 41 00:28:56 AAEE EPERNON M
367 2030 CAPOUL KAREN-ANN V2 38 00:28:59 F
368 2534 RINTO BEATRICE V1 51 00:28:59 TIGER TEAM 972 F
369 2659 LESEL LYSIANE V1 52 00:29:00 F
370 2775 ROCHER JEAN MICHEL V2 58 00:29:03 M
371 2227 PELOPONESE JULIETTE V3 4 00:29:03 OMASS F
372 2079 SOUDIN ROSE V2 39 00:29:05 F
373 2031 AUGUSTINE NATHALIE V1 53 00:29:06 F
374 2673 MOREAU NATHALIE SE 47 00:29:06 F
375 2630 LERIGHAB MYLENE V1 54 00:29:07 TEAM MADINFORM F
376 2740 JEAN BAPTISTE LEA SE 48 00:29:09 ASC ZENITE F
377 2525 DACLINAT MARIE-CLAUDE V1 55 00:29:10 TIGER TEAM 972 F
378 2661 JOUBERT FLORIAN SE 42 00:29:11 M
379 2278 GABRIEL REGIS DANIELE V3 5 00:29:12 F
380 2494 MOTY JEAN LOUIS V2 59 00:29:13 M
381 2695 PALIN MARYSE V3 6 00:29:14 TEAM MADINFORM F
382 2286 BAVARIN CALIXTE PATRICIA V2 40 00:29:15 F
383 2720 MORVILLE AYICHA V1 56 00:29:16 F
384 2272 MORETON ROMAINE V3 7 00:29:16 OMASS F
385 2948 MICHEL DANIEL V3 35 00:29:17 M
386 2964 ?DOSSARD #2964 SE 43 00:29:18 M
387 2392 LALA GERALDINE V1 57 00:29:20 F
388 2617 CHEVIOT EMMANUEL V3 36 00:29:21 M
389 2614 BRIEU SERGE V2 60 00:29:21 M
390 2012 TELCIDE ARMANDE V3 8 00:29:22 AIGLON DU LAMENTIN F
391 2119 RANGOM MURIELLE V2 41 00:29:26 F
392 2009 HAUTEVILLE LAURIANNE V2 42 00:29:28 F
393 2441 NABOR REGINE V2 43 00:29:30 F
394 2398 POTIN CHRISTEL V1 58 00:29:32 F
395 2067 SPERONEL GWENDOLINA V1 59 00:29:33 F
396 2440 MINATCHY MAGALIE SE 49 00:29:36 F
397 2593 JACQUES YEVLIN V3 9 00:29:39 F
398 2273 SAINT-VAL LILIANE V4 1 00:29:40 OMASS F
399 2690 PAILLA KARINE V2 44 00:29:40 F
400 2082 TOUTAIN CAROLINE V1 60 00:29:41 F
401 2387 BAKER RITA SE 50 00:29:42 GOLDEN STAR F
402 2083 LIGUORI GERALDINE V1 61 00:29:42 F
403 2115 NJOH ELLONG EMY SE 51 00:29:45 F
404 2914 HONORE EVELYNE V3 10 00:29:49 AGT MAIRIE FDF F
405 2880 CAMBRAY KEREMA V1 62 00:29:49 HERBALIFE NUTRITION MARTINIQUE F
406 2393 BOURROUET LAURENCE V1 63 00:29:50 F
407 2395 BAUDIN PEGGY V1 64 00:29:50 F
408 2562 RAPON JEAN-MANUEL V3 37 00:29:50 M
409 2090 VICTOIRE YVETTE V2 45 00:29:52 F
410 2011 FILIN PATRICIA V1 65 00:29:53 F
411 2539 TAULY SYLVIA V2 46 00:29:56 TEAM MADINFORM F
412 2177 HARNAIS-SYMPHOR LYDIA SE 52 00:29:57 F
413 2179 CHEVIGNAC CATHERINE SE 53 00:29:57 F
414 2716 ETIENNE JEAN ELIE V1 52 00:29:58 M
415 2106 LOUISYJOSEPH GEORGETTE V1 66 00:30:05 F
416 2193 JOANNES PEGGY V1 67 00:30:05 F
417 2136 MUDARD MIREILLE V1 68 00:30:07 CLUB MANIKOU ORGANISATIONS F
418 2097 CHARLES-EDOUARD CLAIRE V1 69 00:30:09 F
419 2889 LAMON STEEVE V1 53 00:30:10 CHUM M
420 2042 THEGAT YANNICK V2 47 00:30:10 F
421 2891 CHANCE JEAN CLAUDE V2 61 00:30:11 CHUM M
422 2894 VALERE PATRICK V1 54 00:30:12 CHUM M
423 2714 ZAIRE HERVÉ V1 55 00:30:12 M
424 2892 CALMO MARC V2 62 00:30:12 CHUM M
425 2744 PHILIBERT LOUISIANE V3 11 00:30:19 F
426 2027 DECATRELLE CAMILLE V3 38 00:30:23 M
427 2890 GABIANE HUGUES V2 63 00:30:23 CHUM M
428 2729 LABEJOF KARINE V1 70 00:30:26 F
429 2050 TERMON COLETTE V2 48 00:30:26 F
430 2633 PINARDAUD CHRISTOPHE V2 64 00:30:31 TEAM MADINFORM M
431 2810 CASSIAU SARAH SE 54 00:30:32 MAS F
432 2823 MITTARD FRANÇOIS V2 65 00:30:32 MAS M
433 2807 ARICAT ALFRED V1 56 00:30:32 MAS M
434 2801 KIRIEDJOGLOU JEAN DONAT V3 39 00:30:33 MAS M
435 2361 VIRAPIN CHRISTELLE SE 55 00:30:36 F
436 2946 GROS DESORMEAUX CLAUDINE V2 49 00:30:40 F
437 2677 AUGUSTIN JEAN -MICHEL SE 44 00:30:41 M
438 2234 TORPILLE MARINETTE V3 12 00:30:42 F
439 2244 LAMIC SANDRA V1 71 00:30:43 F
440 2836 VROUST-CAVAS SABRINA V1 72 00:30:43 F
441 2095 PINCEAU PEGGY V1 73 00:30:43 F
442 2257 DUZEROL ELIANE V3 13 00:30:44 OMASS F
443 2053 FARDIN JOEL V1 57 00:30:44 M
444 2497 MARGUERITE MARIE-CLAUDE V1 74 00:30:46 F
445 2092 CANTINOL SANDRA V2 50 00:30:47 F
446 2135 DESPROL LINE-ROSE V2 51 00:30:48 CLUB MANIKOU ORGANISATIONS F
447 2838 POULAIN WICKY V1 75 00:30:48 F
448 2570 JEAN-BAPTISTE LUCETTE V2 52 00:30:52 CG OEUVRES SOCIALES HOSPITALIERES F
449 2632 PINARDAUD VALERIE V1 76 00:30:54 TEAM MADINFORM F
450 2489 COM JULIE SE 56 00:30:58 F
451 2464 THERESE MANUELLA V2 53 00:31:00 TEAM LAM TRAIL 972 F
452 2521 CATAN ROLANDE V2 54 00:31:00 F
453 2161 MONT REBECCA V1 77 00:31:00 F
454 2709 DERAMPE PALIX FABIENNE V2 55 00:31:03 F
455 2251 LAURETTA NADIEGE V1 78 00:31:03 F
456 2228 PERMANGANT LILIANE V4 2 00:31:05 OMASS F
457 2385 EUGENIE-ANAULD CATHY V2 56 00:31:06 GOLDEN STAR F
458 2628 MOUSTIN FRANCOISE V1 79 00:31:10 TEAM MADINFORM F
459 2531 LAGIN MICELLA V2 57 00:31:10 TIGER TEAM 972 F
460 2547 QUIMBERT GHISLAINE V1 80 00:31:13 TEAM MADINFORM F
461 2412 LUCHEL PHILIPPE V3 40 00:31:13 M
462 2192 JEAN DOMINIQUE V1 58 00:31:14 M
463 2204 VERIN LYDIA V1 81 00:31:14 F
464 2373 OCTAVIUS BÉATRICE V2 58 00:31:15 CAM F
465 2423 BRIAND MIREILLE V2 59 00:31:16 US ROBERT F
466 2637 MOUNIC MARGAUX CA 4 00:31:18 TEAM MADINFORM F
467 2629 FILIN VANESSA SE 57 00:31:20 TEAM MADINFORM F
468 2548 ARNETON STEEVE SE 45 00:31:20 TEAM MADINFORM M
469 2055 HUTINET FAUSTINE JU 5 00:31:21 F
470 2061 ELISABETH ARMELLE V1 82 00:31:22 F
471 2108 LOUISET WILFRID V1 59 00:31:23 M
472 2176 TELGA SYNDRA SE 58 00:31:25 F
473 2063 TAUPIN FRANCINE V2 60 00:31:27 F
474 2356 RONDEL MURIELLE V2 61 00:31:27 F
475 2408 AMBROISINE JESSY SE 59 00:31:29 F
476 2647 RAUMEL RICHARD V2 66 00:31:32 M
477 2947 GEORGES JEAN CHARLES V3 41 00:31:32 M
478 2670 SELBONNE JESSY SE 60 00:31:33 F
479 2651 JEAN-MARIE MANUELA SE 61 00:31:33 F
480 2758 ETIENNE-JEANETTE MARIE-LAURENCE V2 62 00:31:33 US ROBERT F
481 2685 FAGOUR DAN V1 60 00:31:34 M
482 2650 BRIVAL STEWEN SE 46 00:31:34 M
483 2735 CLAIRICIA CYNTHIA V1 83 00:31:34 F
484 2003 SOLBIAC VANESSA SE 62 00:31:35 F
485 2028 EUGENE ANNIE V1 84 00:31:37 F
486 2016 COURJOL GUY V3 42 00:31:40 M
487 2705 LEOPOLD AUDREY SE 63 00:31:46 F
488 2376 BRUDEY FLAVIENNE V4 3 00:31:46 F
489 2371 SAINT-AIME CHRISTINE V2 63 00:31:46 F
490 2728 GINEAU MARC V2 67 00:31:46 M
491 2124 PERCIN NICOLE V2 64 00:31:47 F
492 2496 SIMBA VIVIANE V2 65 00:31:48 US ROBERT F
493 2944 DIONY CLAUDIA V1 85 00:31:49 F
494 2085 ROCHER PHILIPPE V2 68 00:31:52 M
495 2043 TELGA MONIQUE SE 64 00:31:54 F
496 2830 SERVAL JEAN-MARC V2 69 00:31:55 M
497 2500 MAGAPIN CORINNE V1 86 00:31:56 MAIRIE SPORTIVE F
498 2188 CAPGRAS CLAUDE NATHALIE V1 87 00:31:58 F
499 2069 LOWINSKY LAURYANNE ES 2 00:31:59 F
500 2741 BELLEROPHON JOSE V2 70 00:32:04 M
501 2919 SEININ TONY V2 71 00:32:08 AGT MAIRIE FDF M
502 2665 LESTRADET ISABELLE V2 66 00:32:08 F
503 2431 VILLAGEOIS PATRICIA V2 67 00:32:10 MAIRIE SPORTIVE F
504 2081 NIAVET FLORENCE SE 65 00:32:12 F
505 2004 SOLBIAC GENEVIEVE V2 68 00:32:14 F
506 2210 CLAIRICIA JOELLE V3 14 00:32:15 OMASS F
507 2232 BURNET NATHALIE SE 66 00:32:15 F
508 2460 ALINE JEAN V5 3 00:32:16 OMASS M
509 2533 LAGIN UCELLA V2 69 00:32:23 TIGER TEAM 972 F
510 2553 LARMURE MIRELLA V1 88 00:32:24 F
511 2680 MARINE MURIELLE V2 70 00:32:25 F
512 2645 RESIDANT MARIE CLAUDE V2 71 00:32:27 F
513 2574 MERT NELLY V2 72 00:32:29 CG OEUVRES SOCIALES HOSPITALIERES F
514 2084 MARGUERITE FRANTZE V1 89 00:32:30 F
515 2162 MOUTOUSSAMY MAGALI V2 73 00:32:32 F
516 2905 FOULMANN DONDIN KATY V1 90 00:32:34 ASSO TIPI F
517 2000 FEMMELAT CHRISTINE V2 74 00:32:36 F
518 2246 BLAISE COLETTE V2 75 00:32:41 F
519 2487 DERIS ARIE LLE V3 15 00:32:44 F
520 2453 MACHER ALAIN V4 7 00:32:44 M
521 2417 POMPUI PATRICIA V2 76 00:32:44 AIGLON DU LAMENTIN F
522 2183 DUFOND DORIS V1 91 00:32:45 F
523 2567 ETIENNE NOTTE YANNICK V1 92 00:32:46 F
524 2218 DEFFIT JULIEN V4 8 00:32:47 OMASS M
525 2259 CRUCHET RENEE V3 16 00:32:48 OMASS F
526 2761 CHARLERY SONIA V1 93 00:32:50 F
527 2760 SIVATTE JOHAN SE 47 00:32:50 M
528 2726 VIGILANT AUDREY V1 94 00:32:51 F
529 2268 THIBAUT ELIANE V3 17 00:33:01 OMASS F
530 2308 THIMON FRANCINE V3 18 00:33:02 OMASS F
531 2700 PHILOCLES RAPHAELA V1 95 00:33:03 F
532 2643 CECILIA JUSTINE CECILIA SE 67 00:33:04 F
533 2249 ACHILLE CHANTAL V2 77 00:33:05 F
534 2276 DEFOI CHRISTIANE V3 19 00:33:08 F
535 2683 D ARNAUD MAGALIE V1 96 00:33:10 F
536 2934 BAMBA KAROLE SE 68 00:33:13 F
537 2155 SOUFFLEUR SYLDIA V1 97 00:33:13 F
538 2357 MELICINE DANIEL V2 72 00:33:13 M
539 2909 REMION AZARIA SE 69 00:33:14 ASSO TIPI F
540 2103 HIERSO SIMONE V3 20 00:33:14 F
541 2907 PRESENT ELODIE SE 70 00:33:14 ASSO TIPI F
542 2843 GERMANY HUGUETTE V3 21 00:33:18 CLUD DES RANDONNEURS DE LA MARTINIQUE F
543 2300 OZIER-LAFONTAINE BEATRICE V3 22 00:33:19 OMASS F
544 2375 BRUDEY EUGENE LOUIS V4 9 00:33:20 M
545 2530 MINAR JUSTINE-DOMINIQUE V2 78 00:33:26 TIGER TEAM 972 F
546 2687 SILBANDE YOLETTE V1 98 00:33:28 F
547 2358 FITTE-DUVAL DIDIER V1 61 00:33:31 AIGLON DU LAMENTIN M
548 2877 LINZAU SANDRA V1 99 00:33:32 F
549 2469 VERTEUIL OLIVIER SE 48 00:33:32 SOLY GYM CLUB M
550 2507 MASSOL ERNEST V3 43 00:33:37 M
551 2737 PHALIPPOU LAURA V1 100 00:33:38 F
552 2224 MOLINIER MAGUY V2 79 00:33:38 OMASS F
553 2298 MARIELLO GINA V2 80 00:33:38 OMASS F
554 2566 DUFEAL DOMINIQUE V2 81 00:33:44 F
555 2669 AGASSEAU FRANÇOISE V1 101 00:33:50 F
556 2274 NEDRA LUC V3 44 00:33:59 OMASS M
557 2505 GUY CLARISSE SE 71 00:33:59 F
558 2585 GERMANY FRIDA V1 102 00:34:06 CG OEUVRES SOCIALES HOSPITALIERES F
559 2473 LAUPA JEAN-FRANCOIS V2 73 00:34:12 TCHIMBE RAID M
560 2965 BOTELLA LYSE V3 23 00:34:17 F
561 2200 THALY MYRIAM V1 103 00:34:18 F
562 2432 SAINT AIME STEPHANIE SE 72 00:34:19 MAIRIE SPORTIVE F
563 2782 ALGER CHANTAL V2 82 00:34:20 F
564 2788 DUBOIS DAVID V1 62 00:34:20 M
565 2374 MAGELLAN PAMPHILE KATIA V1 104 00:34:22 F
566 2879 MARIE-LOUISE CELIA SE 73 00:34:22 HERBALIFE NUTRITION MARTINIQUE F
567 2449 PRUDENT LAURENT SE 49 00:34:34 M
568 2435 TINAR Nadiege V1 105 00:34:40 MAIRIE SPORTIVE F
569 2054 MITH SONIA V2 83 00:34:44 F
570 2411 THALY SABRINA SE 74 00:34:46 F
571 2797 DESMONTILS GÉRARD V2 74 00:34:47 MAS M
572 2814 DESANTI SANDRA V1 106 00:34:47 MAS F
573 2811 CHOLET JESSICA SE 75 00:34:47 MAS F
574 2672 LAFONTAINE KARINE V1 107 00:34:47 F
575 2644 RESIDANT ANNIELLE MI 1 00:34:48 F
576 2006 LANDRY LUCETTE V2 84 00:34:48 TCHIMBE RAID F
577 2238 MYRIAM MORIN MYRIAM V1 108 00:34:49 F
578 2267 TOUSSAINT JACQUELINE V3 24 00:34:50 OMASS F
579 2642 ?Dossard #2642 SE 50 00:34:50 M
580 2804 RICHOL PATRICIA V2 85 00:34:50 MAS F
581 2812 CULTIER CLOTAIRE V2 75 00:34:51 MAS M
582 2816 FRANCOIS LUBIN MAGALIE V2 86 00:34:51 MAS F
583 2065 SULTY SYLVIE V2 87 00:34:53 F
584 2883 AMAR SALOMÉ ES 3 00:34:55 F
585 2182 EDMOND FRANCETTE V3 25 00:34:56 F
586 2481 TOUSSAINT NADIA SE 76 00:34:56 F
587 2612 TINMAR SYLVIA V1 109 00:34:57 F
588 2619 LUSBEC INGRID SE 77 00:34:57 F
589 2256 CRAMER PAULETTE V3 26 00:34:57 OMASS F
590 315 MONNEL CENDRINE SE 78 00:34:58 F
591 2226 NIEGER MARTINE V4 4 00:35:04 OMASS F
592 2318 DEFORT DANIELLE V2 88 00:35:09 F
593 2049 DUNON CLAUDIA V1 110 00:35:10 F
594 2142 COROSINE GUY ANDRE V2 76 00:35:14 M
595 2857 BELLONE LUDOVIC SE 51 00:35:16 HDJ TRINITE M
596 2366 NUBUL MAEVA SE 79 00:35:18 F
597 2498 MELCHIOR MARIE JEANNE V2 89 00:35:18 F
598 2143 COROSINE CORALIE SE 80 00:35:19 F
599 2691 RATENAN JESSICA SE 81 00:35:23 F
600 2111 MIRANDE CHRISTIANE V2 90 00:35:27 F
601 2841 ROLLE FRANCISCA SE 82 00:35:30 F
602 2506 GUY CLAUDIA SE 83 00:35:32 F
603 2264 TARAUD JOSIANE V4 5 00:35:32 OMASS F
604 2360 MELICINE SYLVIE V2 91 00:35:37 F
605 2921 CADET-PETIT MICHELINE V1 111 00:35:37 AGT MAIRIE FDF F
606 2504 LIBER VANESSA SE 84 00:35:37 F
607 2313 BERTHOLLE SABINE V2 92 00:35:37 ASPTT MARTINIQUE F
608 2702 DIGONNET MARIE SE 85 00:35:39 F
609 2404 CLOVEL ALIETTE V3 27 00:35:48 F
610 2450 HERTHE SONIA V3 28 00:35:49 CLUB DES ARTS MARTIAUX DE RIVIERE-PILOTE F
611 2255 JANNAS JULIE V4 6 00:35:50 OMASS F
612 2591 ROSELINE SYMPHOR V1 112 00:35:50 F
613 2270 DELIN LUCIEN V4 10 00:35:59 OMASS M
614 2902 GERTUDE RACHEL V3 29 00:36:01 ASSO TIPI F
615 2727 GUSTO CHRISTINE SE 86 00:36:06 F
616 2613 ABDELLI YAMINA SE 87 00:36:06 F
617 2969 BAROUT BRUNO V3 45 00:36:12 M
618 2942 DUBAR DELICE V4 7 00:36:14 F
619 2178 PECTAGE YVELISE SE 88 00:36:15 F
620 2627 GERMANY CORINNE V1 113 00:36:17 TEAM MADINFORM F
621 2869 VČNUS JACQUELINE V3 30 00:36:18 F
622 2884 CHARVEIN CHRISTIAN V1 63 00:36:20 M
623 2916 LEONIDAS ELISABETH V3 31 00:36:20 AGT MAIRIE FDF F
624 2915 VIVIES FRANCE LINE V3 32 00:36:20 AGT MAIRIE FDF F
625 2518 RATIN CAROLE V2 93 00:36:21 F
626 2582 DESIRLISTE MARIE-HELENE V3 33 00:36:21 CG OEUVRES SOCIALES HOSPITALIERES F
627 2908 POULIN PASCALINE SE 89 00:36:23 ASSO TIPI F
628 2646 AUGIER GLADYS SE 90 00:36:32 F
629 2878 COUTEPEROUMAL LYVIA SE 91 00:36:36 F
630 2472 PASTEL JESSICA SE 92 00:36:38 F
631 2483 CHONVILLE JULIETTE V2 94 00:36:40 F
632 2220 FARRAUDIERE CHRYSLAINE V3 34 00:36:42 OMASS F
633 2428 EMMAUEL MARIE GABRIELLE V1 114 00:36:44 MAIRIE SPORTIVE F
634 2239 THALY GEORGES V3 46 00:36:44 M
635 2091 JUPITER KARINE V1 115 00:36:54 F
636 2675 TIBURCE LOUIS V3 47 00:36:59 M
637 2105 LOUVOUNOU PATRICK V2 77 00:36:59 M
638 2163 BRIANTO PATRICIA V1 116 00:37:01 F
639 2203 TIBURCE ALEX V3 48 00:37:05 M
640 2429 HARDY-DESSOURCES NICOLE V2 95 00:37:06 MAIRIE SPORTIVE F
641 2427 CAROLE MYLENE V1 117 00:37:16 MAIRIE SPORTIVE F
642 2918 OCTAVE MARIE LUCIE V1 118 00:37:16 AGT MAIRIE FDF F
643 2831 FOULQUIER CLAUDE V3 49 00:37:19 M
644 2305 DERIS MALIKA SE 93 00:37:20 F
645 2448 MARAJO MARIE-HÉLČNE V3 35 00:37:22 F
646 2565 DUFEAL DENYSE V2 96 00:37:22 F
647 2662 LAGRAND LINDA V1 119 00:37:25 F
648 2017 CASTEL CHRISTELLE SE 94 00:37:26 F
649 2217 DEFFIT CHRISTIANE V4 8 00:37:29 OMASS F
650 2250 HONORE GILLES SE 52 00:37:29 M
651 2837 PELGRAIN SOPHIE SE 95 00:37:30 F
652 2663 MACKO LIVIA SE 96 00:37:30 F
653 2465 BRENOC DANIELLE V2 97 00:37:41 F
654 2732 MONGIN MIREILLE V2 98 00:37:43 F
655 2476 PASTOUR SABINE V2 99 00:37:45 F
656 2381 LEVY ROSELYNE V2 100 00:37:45 GOLDEN STAR F
657 2616 DUFEAL DANIELLE V2 101 00:37:48 F
658 2508 BARON ISABELLE V1 120 00:37:48 F
659 2418 MATHURINA MICHAELLE V2 102 00:37:52 ASC ZENITH F
660 2394 PRIOR FRANCINE V2 103 00:37:52 ASC ZENITH F
661 2219 SAMOT PAULE V5 1 00:37:58 OMASS F
662 2966 AMALIS Benoit V1 64 00:38:00 M
663 2654 CIZO CARMEN V1 121 00:38:00 F
664 2466 JACQUES LAURINE SE 97 00:38:04 F
665 2266 GUSTO EUGENIE V3 36 00:38:12 OMASS F
666 2005 CAREL EMILIENNE V2 104 00:38:15 F
667 2284 HELENE JESSY V1 65 00:38:16 M
668 2283 HELENE KEVINE SE 98 00:38:18 F
669 2941 VENUS MAGUY V3 37 00:38:18 F
670 2295 CHOISY NELLY MIRELLA V3 38 00:38:20 OMASS F
671 2708 CIMPER SOLANGE AGNES V3 39 00:38:20 F
672 2202 THALY VIRGINIE SE 99 00:38:25 F
673 2864 AUGUSTINE AUDE SE 100 00:38:26 HDJ TRINITE F
674 2076 MARCELIN OLIVIER V2 78 00:38:28 M
675 2075 JEAN-BAPTISTE ISABELLE V2 105 00:38:28 F
676 2502 SUIVANT RAPHAELLE V2 106 00:38:31 F
677 2131 LEZIN FRANCIS V2 79 00:38:40 M
678 2493 CAMY MARGARETTE V3 40 00:38:41 F
679 2077 MARCELIN VALÉRIE V2 107 00:38:44 F
680 2277 DRU MARIE-CLAUDE V1 122 00:38:46 F
681 2795 CLEANTE SAMANTHA SE 101 00:38:46 MAS F
682 2819 IGNACE CLAUDETTE V2 108 00:38:46 MAS F
683 2002 COURSIL CHRISTIANE V2 109 00:38:48 F
684 2306 BAUDE CHRISTIANE V3 41 00:38:48 OMASS F
685 2150 VERONIQUE ROSITA V2 110 00:38:50 F
686 2271 OLLIEN ANITE V4 9 00:38:54 OMASS F
687 2796 DELET MARIE YVONNE V3 42 00:38:56 MAS F
688 2828 VOBA BETTY V1 123 00:38:56 MAS F
689 2821 LERIDIER MYRIAM V1 124 00:38:57 MAS F
690 2808 BIRON ELIANE V2 111 00:38:58 MAS F
691 2817 GIBON MARCEL V1 66 00:38:58 MAS M
692 2825 NOMEL GÉRALD V1 67 00:38:58 MAS M
693 2800 HO TIN NOE INGRID V1 125 00:38:58 MAS F
694 2805 THOBOR JEAN PHILIPPE V1 68 00:38:59 MAS M
695 2815 DEVAUX EVELYNE V3 43 00:38:59 MAS F
696 2110 ANDRE NICOLE V2 112 00:38:59 F
697 2455 FAUSTIN CHRISTINE V2 113 00:39:02 F
698 2209 BELLIARD JACQUELINE V3 44 00:39:05 OMASS F
699 2262 ZOZOR ANTOINETTE V4 10 00:39:07 OMASS F
700 2293 ROVILLON FLORA V3 45 00:39:09 OMASS F
701 2299 BOULARD DANIELLE V3 46 00:39:10 OMASS F
702 2263 BUISSON MONIQUE V3 47 00:39:11 OMASS F
703 2818 HELOISE MARIE GEORGES V3 48 00:39:21 MAS F
704 2824 NEY MAGGY V1 126 00:39:22 MAS F
705 2799 HELOISE LINA V2 114 00:39:22 MAS F
706 2421 DUVAL DOMINIQUE V2 115 00:39:28 RACING CLUB MARTINIQUE F
707 2100 THUNY GÉRALDINE V2 116 00:39:29 F
708 2068 LOWINSKY CHANTAL V1 127 00:39:31 F
709 2070 RIJO CHRISTIAN V2 80 00:39:32 M
710 2253 NATTES SUZY V3 49 00:39:36 F
711 2406 ZOZOR VIVIANE V2 117 00:39:45 F
712 2048 JOSEPH-MONROSE NATACHA SE 102 00:39:48 F
713 2169 MONLOUIS-FELICITE MURIELLE V2 118 00:39:54 F
714 2329 CARIDE SONIA V1 128 00:39:59 GOLDEN STAR F
715 2607 LUCIEN DOMINIQUE V1 129 00:40:01 F
716 2608 RENOULT YANN V1 69 00:40:01 M
717 2201 ZADICK MONIQUE V3 50 00:40:04 CAM F
718 2072 FONCLAUD JOSUELA SE 103 00:40:04 F
719 2479 BYLON JESSY SE 104 00:40:05 F
720 2480 LORDELOT JOSETTE V2 119 00:40:05 F
721 2040 MIGNEAUX LAURENCE V1 130 00:40:05 F
722 2039 KICHENAMA VALÉRIE V1 131 00:40:05 F
723 2618 BONIFACE DEBORAH SE 105 00:40:07 F
724 2215 PETITOT YANETTE V3 51 00:40:21 OMASS F
725 2307 THIMON CLAIR V3 50 00:40:21 OMASS M
726 2906 THOREL VALERIE V1 132 00:40:22 ASSO TIPI F
727 2148 JEAN MAGUY V2 120 00:40:22 F
728 2856 MARIE-LOUISE THOMAS HUGUES V2 81 00:40:27 HDJ TRINITE M
729 2855 LUCIEN ROGER V1 70 00:40:28 HDJ TRINITE M
730 2861 CATAN SEBASTIEN SE 53 00:40:28 HDJ TRINITE M
731 2854 AUGUSTINE DAVE SE 54 00:40:28 HDJ TRINITE M
732 2849 VITALIEN DAVID V1 71 00:40:28 HDJ TRINITE M
733 2351 SAINT LOUIS KELLY JU 6 00:40:42 F
734 2635 CELY DELPHIN V4 11 00:40:47 TEAM MADINFORM M
735 2020 CARISTAN ESTELLE V1 133 00:40:50 F
736 2927 GAUD Veronique V1 134 00:40:51 F
737 2674 ROSE-EVELYNE ESSART ROSE-EVELYNE V1 135 00:40:54 F
738 2296 JULVECOURT SAINT-ALBIN MONIQUE V3 52 00:40:55 OMASS F
739 2945 GABOURG MARTA V3 53 00:40:57 MAIRIE SPORTIVE F
740 2701 SIBADO JACQUELINE V3 54 00:41:07 F
741 2212 GARNIER CHERUBIN ELISABETH V4 11 00:41:07 OMASS F
742 2551 ANTIOPE MATHILDE SE 106 00:41:10 TEAM MADINFORM F
743 2275 BELMO ANNETTE V4 12 00:41:11 OMASS F
744 2214 LINGIBE JULIE V4 13 00:41:11 OMASS F
745 2309 SYLVESTRE YOLANDE V4 14 00:41:12 OMASS F
746 2546 ELIE GLAWDYS SE 107 00:41:15 TEAM MADINFORM F
747 2223 MANUEL ELISE V4 15 00:41:17 OMASS F
748 2297 RODRIGUE ELIANE V3 55 00:41:23 OMASS F
749 2057 BONNIALY VERONIQUE V2 121 00:41:30 F
750 2261 LADA ROBERTE V3 56 00:41:34 OMASS F
751 2190 VRIJDAGHS FRANCOISE V2 122 00:41:39 F
752 2342 EUGENIE JEAN-MICHEL V2 82 00:41:40 GOLDEN STAR M
753 2107 GELIE MARIE-FRANCOISE V3 57 00:41:41 F
754 2868 SINSEAU HUGUETTE V3 58 00:41:46 F
755 2294 CRETINOIR FLORA V4 16 00:41:58 OMASS F
756 2211 LEVERT PAULE MARIE-CLAUDE V3 59 00:42:03 OMASS F
757 2391 BLANCHETIERE PIERRE V1 72 00:42:06 M
758 2544 PAULIN MYLENE SE 108 00:42:14 TEAM MADINFORM F
759 2545 COURLA MICHELE V1 136 00:42:14 TEAM MADINFORM F
760 2258 CRUCHET VANESSA SE 109 00:42:18 OMASS F
761 2265 GALIM CAPRON SIMONE V3 60 00:42:18 OMASS F
762 2770 SULTER CHRISTIANE V1 137 00:42:26 F
763 2769 CORINUS MARIE-FRANÇOISE V2 123 00:42:26 F
764 2225 NEDRA MARIE-JEANNE V3 61 00:42:27 OMASS F
765 2900 BERTINER CAROLE V1 138 00:42:28 F
766 2033 BERTINER BEATRICE V1 139 00:42:28 F
767 2503 EGOUY MARIE-KARINE SE 110 00:42:56 F
768 2853 JEAN-JOACHIM-EURASI JEAN V1 73 00:42:58 HDJ TRINITE M
769 2671 THIMON STEPHANIE V1 140 00:42:59 F
770 2216 TUZO JULIE V3 62 00:43:42 OMASS F
771 2865 GAU JOHANA SE 111 00:43:42 HDJ TRINITE F
772 2859 BENOIT LOUISON SUZY V2 124 00:43:42 HDJ TRINITE F
773 2933 MEDELICE WILSON V1 74 00:43:43 M
774 2014 LESUEUR LESLIE SE 112 00:43:55 F
775 2887 EDOUARDS GUIDEL V3 51 00:44:02 CHUM M
776 2893 LOUIS-ALEXANDRE ERIC V2 83 00:44:03 CHUM M
777 2390 MAIRE EMILIE V1 141 00:44:25 F
778 2622 MODESTE ANNE DOLORES V1 142 00:44:29 TEAM MADINFORM F
779 2549 DANIEL DJAMINA SE 113 00:44:29 TEAM MADINFORM F
780 2537 VALIDE OLIVIER V1 75 00:44:30 TEAM MADINFORM M
781 2686 LOUIS PICHEGRAIN SANDRA V1 143 00:44:39 HERBALIFE NUTRITION MARTINIQUE F
782 2599 COURCET CLAUDINE SE 114 00:44:45 F
783 2606 LEFRANC REINE-VERONIQUE V2 125 00:44:46 F
784 2595 NAROYANIN LAURYNN SE 115 00:44:57 F
785 2601 LABRANCHE FABIENNE V1 144 00:45:02 F
786 2604 SAVEY ANNE V2 126 00:45:08 F
787 2597 CORIDON LYNDA V1 145 00:45:24 F
788 2596 NILUSMAS CAROL V1 146 00:45:24 F
789 2784 DOULIN MARLENE V2 127 00:45:32 F
790 2180 MAXIMIN VICTOR MICHEL V3 52 00:45:34 M
791 2501 LUCEA CHRISTIANE V3 63 00:45:43 F
792 2513 MORBERY MONIQUE V3 64 00:45:44 F
793 2198 SAINT ALBIN GILBERTE V2 128 00:46:16 F
794 2780 JANVIER MARIANNA SE 116 00:46:35 F
795 2791 JULVECOURT GAËL SE 55 00:46:35 M
796 2785 VELAYOUDON CHRISTOPHE SE 56 00:46:36 M
797 2787 CARRA COLETTE V1 147 00:46:36 F
798 2199 CATHERINE GHISLAINE V3 65 00:46:37 TCHIMBE RAID F
799 2790 BOSQUI DAVID V2 84 00:46:37 M
800 2786 MIEVELLY HARRY V1 76 00:46:37 M
801 2118 SALVON CHANTAL V2 129 00:46:42 F
802 2851 CELIMENE VINCENT SE 57 00:46:47 HDJ TRINITE M
803 2719 DOLMEN FRANÇOISE V2 130 00:48:36 F
804 2866 TURIAF MARIE HELLENE V3 66 00:49:00 HDJ TRINITE F
805 2331 WAKIM SOPHIE V1 148 00:50:14 F
806 2558 AMORY-DUMANOIR MAURICE V2 85 00:50:16 M
807 2488 BARON BÉATRICE V1 149 00:50:18 F
808 2511 BALLOO FABIOLA V1 150 00:50:18 F
809 2071 SAXEMARD KELLY SE 117 00:50:52 F